Time;durP1;ratioP1;P1;durP2;ratioP2;P2;SDS_P1;SDS_P2;PMS_P1;PMS_P2;Temp;Humidity;BMP_temperature;BMP_pressure;BME280_temperature;BME280_humidity;BME280_pressure;Samples;Min_cycle;Max_cycle;Signal;HPM_P1;HPM_P2
2022/06/05 00:03:37;;;;;;;44.42;31.40;;;15.80;99.90;;;;;;10442453;28;20029;-84
2022/06/05 00:08:45;;;;;;;43.92;30.88;;;15.80;99.90;;;;;;10458993;28;20068;-85
2022/06/05 00:13:52;;;;;;;49.17;34.70;;;15.90;99.90;;;;;;10451906;28;20020;-83
2022/06/05 00:18:53;;;;;;;43.88;31.63;;;15.80;99.90;;;;;;10455587;28;20119;-85
2022/06/05 00:23:54;;;;;;;50.17;34.20;;;15.80;99.90;;;;;;10437884;28;20032;-84
2022/06/05 00:29:35;;;;;;;42.47;31.45;;;15.80;99.90;;;;;;10442608;28;20024;-84
2022/06/05 00:34:36;;;;;;;52.13;35.80;;;15.80;99.90;;;;;;10444840;28;20040;-84
2022/06/05 00:39:55;;;;;;;47.22;33.97;;;15.70;99.90;;;;;;10448600;28;20074;-86
2022/06/05 00:44:59;;;;;;;50.28;35.17;;;15.60;99.90;;;;;;10473534;28;20020;-83
2022/06/05 00:50:04;;;;;;;48.63;35.33;;;15.60;99.90;;;;;;10447879;28;20024;-86
2022/06/05 00:55:07;;;;;;;44.45;33.95;;;15.60;99.90;;;;;;10448680;28;20053;-89
2022/06/05 01:00:16;;;;;;;38.78;29.98;;;15.50;99.90;;;;;;10447827;28;20044;-85
2022/06/05 01:05:17;;;;;;;42.33;31.45;;;15.40;99.90;;;;;;10452656;28;20024;-85
2022/06/05 01:10:19;;;;;;;47.40;33.75;;;15.30;99.90;;;;;;10447431;28;20029;-85
2022/06/05 01:15:27;;;;;;;57.42;37.53;;;15.10;99.90;;;;;;10444150;28;20029;-84
2022/06/05 01:20:55;;;;;;;46.88;34.35;;;15.00;99.90;;;;;;10446800;28;20499;-84
2022/06/05 01:26:19;;;;;;;46.65;34.45;;;14.90;99.90;;;;;;10438292;28;20033;-85
2022/06/05 01:31:20;;;;;;;43.28;33.63;;;14.80;99.90;;;;;;10441249;28;20115;-87
2022/06/05 01:36:34;;;;;;;44.58;34.25;;;14.60;99.90;;;;;;10444777;28;20067;-83
2022/06/05 01:41:52;;;;;;;47.92;36.03;;;14.60;99.90;;;;;;10439443;28;20044;-85
2022/06/05 01:46:53;;;;;;;37.17;29.05;;;14.60;99.90;;;;;;10441752;28;20033;-86
2022/06/05 01:52:21;;;;;;;46.20;34.15;;;14.50;99.90;;;;;;10450818;28;20039;-85
2022/06/05 01:57:23;;;;;;;46.28;33.17;;;14.30;99.90;;;;;;10442561;28;20067;-85
2022/06/05 02:02:33;;;;;;;46.13;32.47;;;14.00;99.90;;;;;;10446042;28;21361;-84
2022/06/05 02:07:44;;;;;;;43.63;31.80;;;13.90;99.90;;;;;;10458152;28;20102;-84
2022/06/05 02:12:45;;;;;;;51.28;35.85;;;13.70;99.90;;;;;;10443203;28;20029;-84
2022/06/05 02:17:46;;;;;;;47.50;34.08;;;13.50;99.90;;;;;;10445095;28;20044;-84
2022/06/05 02:22:49;;;;;;;54.13;35.28;;;13.40;99.90;;;;;;10437722;28;20035;-89
2022/06/05 02:27:56;;;;;;;57.28;38.22;;;13.30;99.90;;;;;;10434933;28;20034;-87
2022/06/05 02:33:02;;;;;;;60.53;39.70;;;13.30;99.90;;;;;;10447572;28;20063;-84
2022/06/05 02:38:03;;;;;;;58.17;38.42;;;13.20;99.90;;;;;;10445802;28;20464;-84
2022/06/05 02:43:15;;;;;;;52.72;34.88;;;13.30;99.90;;;;;;10440897;28;20116;-85
2022/06/05 02:48:16;;;;;;;52.40;35.55;;;13.30;99.90;;;;;;10420340;28;20072;-83
2022/06/05 02:53:17;;;;;;;48.90;33.90;;;13.20;99.90;;;;;;10445757;28;20032;-84
2022/06/05 02:58:18;;;;;;;50.03;36.10;;;13.00;99.90;;;;;;10436384;28;20065;-87
2022/06/05 03:03:27;;;;;;;52.92;38.50;;;13.10;99.90;;;;;;10456378;28;20029;-85
2022/06/05 03:08:28;;;;;;;48.60;35.25;;;13.30;99.90;;;;;;10447573;28;20057;-85
2022/06/05 03:13:29;;;;;;;45.92;33.90;;;13.50;99.90;;;;;;10445060;28;20123;-85
2022/06/05 03:18:30;;;;;;;40.47;32.47;;;13.60;99.90;;;;;;10443060;28;20094;-83
2022/06/05 03:23:32;;;;;;;47.95;32.38;;;13.70;99.90;;;;;;10445956;28;20028;-86
2022/06/05 03:28:32;;;;;;;43.38;32.90;;;13.80;99.90;;;;;;10443432;28;20029;-83
2022/06/05 03:33:34;;;;;;;39.33;31.02;;;13.80;99.90;;;;;;10445874;28;20075;-83
2022/06/05 03:38:35;;;;;;;45.67;33.80;;;13.80;99.90;;;;;;10447781;28;20041;-87
2022/06/05 03:43:37;;;;;;;42.65;30.80;;;13.80;99.90;;;;;;10446264;28;20040;-85
2022/06/05 03:48:39;;;;;;;40.97;29.80;;;13.80;99.90;;;;;;10451623;28;20489;-85
2022/06/05 03:53:40;;;;;;;40.55;29.20;;;13.80;99.90;;;;;;10448683;28;20029;-84
2022/06/05 03:58:41;;;;;;;34.83;28.05;;;13.80;99.90;;;;;;10453922;28;20130;-83
2022/06/05 04:03:42;;;;;;;35.60;27.33;;;13.80;99.90;;;;;;10464553;28;20016;-84
2022/06/05 04:08:43;;;;;;;39.90;28.73;;;13.90;99.90;;;;;;10459473;28;20079;-84
2022/06/05 04:13:44;;;;;;;37.15;27.65;;;13.90;99.90;;;;;;10459873;28;20032;-88
2022/06/05 04:18:46;;;;;;;34.47;24.90;;;14.00;99.90;;;;;;10458071;28;20047;-83
2022/06/05 04:23:47;;;;;;;31.73;23.75;;;14.00;99.90;;;;;;10442124;28;20037;-83
2022/06/05 04:28:48;;;;;;;30.70;22.15;;;14.10;99.90;;;;;;10446594;28;20028;-84
2022/06/05 04:33:51;;;;;;;28.92;22.88;;;14.20;99.90;;;;;;10448723;28;20056;-84
2022/06/05 04:38:52;;;;;;;26.77;21.55;;;14.30;99.90;;;;;;10439684;28;20045;-82
2022/06/05 04:43:55;;;;;;;33.38;23.10;;;14.30;99.90;;;;;;10445671;28;20033;-83
2022/06/05 04:48:56;;;;;;;28.52;22.17;;;14.40;99.90;;;;;;10438195;28;20029;-83
2022/06/05 04:53:57;;;;;;;29.02;23.70;;;14.40;99.90;;;;;;10455313;28;20170;-89
2022/06/05 04:58:59;;;;;;;27.25;21.73;;;14.50;99.90;;;;;;10444646;28;20071;-89
2022/06/05 05:04:03;;;;;;;27.63;21.77;;;14.70;99.90;;;;;;10442096;28;20044;-84
2022/06/05 05:09:04;;;;;;;26.77;21.27;;;14.80;99.90;;;;;;10455605;28;20039;-86
2022/06/05 05:14:05;;;;;;;26.67;20.90;;;15.00;99.90;;;;;;10448862;28;20033;-84
2022/06/05 05:19:07;;;;;;;27.17;21.50;;;15.00;99.90;;;;;;10441873;28;20522;-83
2022/06/05 05:24:08;;;;;;;22.50;19.65;;;15.20;99.90;;;;;;10472374;28;20543;-85
2022/06/05 05:29:09;;;;;;;21.77;18.33;;;15.40;99.90;;;;;;10445768;28;20033;-85
2022/06/05 05:34:10;;;;;;;25.52;19.98;;;15.60;99.90;;;;;;10461366;28;20024;-86
2022/06/05 05:44:35;;;;;;;25.35;19.67;;;15.80;99.90;;;;;;10446836;28;20040;-81
2022/06/05 05:49:36;;;;;;;24.15;20.15;;;16.00;99.90;;;;;;10442585;28;20033;-84
2022/06/05 05:54:38;;;;;;;24.45;20.85;;;16.20;99.90;;;;;;10438988;28;20068;-83
2022/06/05 05:59:39;;;;;;;22.17;18.30;;;16.40;99.90;;;;;;10447111;28;20108;-85
2022/06/05 06:04:42;;;;;;;20.88;18.27;;;16.60;99.90;;;;;;10451286;28;20478;-83
2022/06/05 06:09:43;;;;;;;21.05;18.88;;;16.70;99.90;;;;;;10455674;28;20033;-86
2022/06/05 06:14:43;;;;;;;21.17;17.98;;;17.00;99.90;;;;;;10448389;28;20692;-84
2022/06/05 06:19:44;;;;;;;21.77;19.33;;;17.20;99.90;;;;;;10463496;28;20029;-87
2022/06/05 06:24:46;;;;;;;22.10;17.88;;;17.40;99.90;;;;;;10434482;28;20038;-83
2022/06/05 06:29:47;;;;;;;18.77;16.73;;;17.40;99.90;;;;;;10427655;28;20159;-82
2022/06/05 06:34:47;;;;;;;20.60;16.63;;;17.70;99.90;;;;;;10431918;28;20067;-84
2022/06/05 06:39:48;;;;;;;18.92;15.05;;;18.20;99.90;;;;;;10426733;28;20047;-85
2022/06/05 06:44:49;;;;;;;17.02;15.23;;;18.50;99.90;;;;;;10425005;28;20053;-83
2022/06/05 06:49:49;;;;;;;19.60;14.93;;;18.90;99.90;;;;;;10431584;28;20047;-84
2022/06/05 06:54:50;;;;;;;16.20;13.63;;;19.70;99.90;;;;;;10426888;28;20071;-89
2022/06/05 06:59:51;;;;;;;14.85;13.30;;;20.50;99.90;;;;;;10425449;28;20512;-84
2022/06/05 07:04:52;;;;;;;15.77;12.93;;;21.90;99.90;;;;;;10431356;28;20064;-83
2022/06/05 07:09:52;;;;;;;16.23;13.43;;;23.10;99.90;;;;;;10430678;28;20036;-85
2022/06/05 07:14:53;;;;;;;13.10;11.68;;;23.10;99.90;;;;;;10430384;28;20591;-83
2022/06/05 07:19:54;;;;;;;13.68;10.73;;;23.70;99.90;;;;;;10431284;28;20041;-86
2022/06/05 07:24:54;;;;;;;12.23;10.40;;;23.60;99.90;;;;;;10454204;28;20029;-89
2022/06/05 07:29:55;;;;;;;11.38;10.23;;;23.70;99.90;;;;;;10456738;28;20040;-84
2022/06/05 07:34:56;;;;;;;12.70;9.73;;;24.00;99.90;;;;;;10449783;28;20047;-84
2022/06/05 07:39:56;;;;;;;11.05;9.13;;;23.70;99.90;;;;;;10450660;28;20041;-83
2022/06/05 07:44:57;;;;;;;10.77;8.95;;;23.80;99.90;;;;;;10460085;28;20033;-87
2022/06/05 07:49:58;;;;;;;9.50;7.80;;;24.00;99.90;;;;;;10448877;28;20079;-84
2022/06/05 07:54:58;;;;;;;10.77;8.23;;;24.00;99.90;;;;;;10451553;28;20049;-83
2022/06/05 07:59:59;;;;;;;10.02;7.38;;;23.60;99.90;;;;;;10451224;28;20041;-82
2022/06/05 08:05:02;;;;;;;7.82;7.03;;;23.40;97.30;;;;;;10445136;28;20017;-82
2022/06/05 08:10:05;;;;;;;7.57;6.88;;;23.40;98.10;;;;;;10430425;28;20040;-86
2022/06/05 08:15:10;;;;;;;7.05;6.18;;;23.60;97.60;;;;;;10436333;28;20037;-83
2022/06/05 08:20:12;;;;;;;6.68;6.07;;;23.80;96.10;;;;;;10428915;28;20036;-81
2022/06/05 08:25:14;;;;;;;8.07;6.00;;;24.00;93.40;;;;;;10428277;28;20470;-82
2022/06/05 08:30:14;;;;;;;7.00;5.20;;;24.20;84.80;;;;;;10422263;28;20044;-84
2022/06/05 08:35:15;;;;;;;6.57;5.25;;;24.00;86.50;;;;;;10424599;28;20037;-85
2022/06/05 08:46:12;;;;;;;6.83;5.07;;;24.40;80.30;;;;;;10358702;28;20480;-82
2022/06/05 08:51:21;;;;;;;5.00;4.60;;;24.40;78.60;;;;;;10448941;28;20669;-83
2022/06/05 08:56:34;;;;;;;5.70;5.10;;;24.60;77.40;;;;;;10454174;28;20114;-84
2022/06/05 09:01:57;;;;;;;7.50;5.03;;;24.70;81.70;;;;;;10444440;28;20040;-84
2022/06/05 09:07:02;;;;;;;6.07;5.03;;;24.90;74.50;;;;;;10437568;28;20034;-88
2022/06/05 09:12:08;;;;;;;5.10;4.38;;;25.20;77.60;;;;;;10431027;28;20028;-83
2022/06/05 09:17:15;;;;;;;6.03;4.13;;;25.80;75.90;;;;;;10422296;28;20044;-84
2022/06/05 09:22:16;;;;;;;4.03;3.63;;;26.30;73.50;;;;;;10430695;28;20069;-85
2022/06/05 09:27:42;;;;;;;4.18;3.88;;;26.60;76.80;;;;;;10426922;28;20108;-85
2022/06/05 09:32:51;;;;;;;4.18;3.65;;;26.90;73.10;;;;;;10433697;28;20291;-84
2022/06/05 09:38:11;;;;;;;3.78;3.47;;;27.10;70.40;;;;;;10418333;28;20041;-85
2022/06/05 09:43:43;;;;;;;4.78;3.60;;;26.60;68.30;;;;;;10428148;28;20024;-86
2022/06/05 09:48:53;;;;;;;3.97;3.60;;;26.60;62.80;;;;;;10416631;28;20035;-84
2022/06/05 09:54:16;;;;;;;4.00;3.60;;;26.50;63.70;;;;;;10420399;28;20074;-85
2022/06/05 09:59:23;;;;;;;4.05;3.70;;;26.50;67.10;;;;;;10421052;28;20136;-85
2022/06/05 10:04:29;;;;;;;4.35;3.75;;;26.30;66.60;;;;;;10424126;28;20116;-86
2022/06/05 10:09:32;;;;;;;4.18;3.58;;;26.10;68.70;;;;;;10416764;28;20579;-85
2022/06/05 10:14:41;;;;;;;4.00;3.65;;;26.40;65.70;;;;;;10423995;28;20489;-85
2022/06/05 10:19:52;;;;;;;4.85;3.42;;;26.70;70.50;;;;;;10426901;28;20058;-86
2022/06/05 10:25:17;;;;;;;4.18;3.78;;;27.10;73.70;;;;;;10443921;28;20412;-85
2022/06/05 10:30:20;;;;;;;7.97;4.15;;;27.60;63.60;;;;;;10429015;28;20474;-85
2022/06/05 10:35:53;;;;;;;4.28;3.45;;;27.50;67.50;;;;;;10438625;28;20035;-85
2022/06/05 10:40:58;;;;;;;6.07;3.80;;;27.60;71.40;;;;;;10441439;28;20049;-84
2022/06/05 10:46:23;;;;;;;5.60;3.50;;;28.00;63.30;;;;;;10441131;28;20032;-85
2022/06/05 10:51:35;;;;;;;4.05;3.70;;;27.40;64.20;;;;;;10413282;28;20430;-86
2022/06/05 10:56:45;;;;;;;6.63;3.78;;;27.60;69.40;;;;;;10412410;28;20041;-85
2022/06/05 11:02:01;;;;;;;3.70;3.38;;;28.00;66.80;;;;;;10434316;28;20105;-85
2022/06/05 11:07:19;;;;;;;3.47;3.17;;;28.40;64.00;;;;;;10421826;28;20034;-86
2022/06/05 11:18:19;;;;;;;3.97;3.67;;;28.20;63.70;;;;;;10433421;28;20048;-85
2022/06/05 11:23:23;;;;;;;4.07;3.63;;;28.10;64.60;;;;;;10431563;28;20283;-85
2022/06/05 11:28:56;;;;;;;3.65;3.35;;;28.00;65.40;;;;;;10434392;28;20034;-88
2022/06/05 11:34:02;;;;;;;5.65;3.83;;;28.00;62.00;;;;;;10430331;28;20048;-87
2022/06/05 11:39:49;;;;;;;6.32;3.65;;;26.50;62.90;;;;;;10427990;28;20719;-84
2022/06/05 11:45:05;;;;;;;3.95;3.65;;;25.80;66.40;;;;;;10388254;28;20053;-88
2022/06/05 11:50:29;;;;;;;3.45;3.25;;;26.30;70.20;;;;;;10429486;28;20091;-86
2022/06/05 11:55:42;;;;;;;3.80;3.50;;;27.40;66.70;;;;;;10438842;28;20150;-85
2022/06/05 12:01:01;;;;;;;5.05;3.85;;;26.60;63.20;;;;;;10439341;28;20507;-88
2022/06/05 12:06:32;;;;;;;5.95;3.78;;;25.50;68.50;;;;;;10426378;28;20502;-85
2022/06/05 12:11:45;;;;;;;4.03;3.70;;;25.60;70.40;;;;;;10436022;28;20037;-84
2022/06/05 12:17:01;;;;;;;5.60;3.75;;;26.10;66.00;;;;;;10433358;28;20049;-86
2022/06/05 12:22:07;;;;;;;4.43;4.00;;;26.00;69.90;;;;;;10441955;28;20031;-84
2022/06/05 12:27:17;;;;;;;4.40;4.00;;;26.20;62.90;;;;;;10431972;28;20028;-84
2022/06/05 12:32:34;;;;;;;4.60;3.78;;;26.40;65.40;;;;;;10442782;28;20104;-85
2022/06/05 12:37:43;;;;;;;5.22;3.55;;;26.50;66.80;;;;;;10438420;28;20490;-84
2022/06/05 12:43:00;;;;;;;6.57;3.90;;;26.90;69.10;;;;;;10440717;28;20481;-88
2022/06/05 12:48:12;;;;;;;5.28;3.70;;;27.00;61.40;;;;;;10449540;28;20029;-87
2022/06/05 12:53:50;;;;;;;4.65;4.22;;;26.80;63.10;;;;;;10435231;28;20032;-85
2022/06/05 12:59:12;;;;;;;4.32;3.92;;;27.30;67.40;;;;;;10432714;28;20038;-87
2022/06/05 13:04:44;;;;;;;5.72;4.15;;;27.10;63.30;;;;;;10422816;28;20053;-84
2022/06/05 13:09:57;;;;;;;4.55;4.15;;;26.50;64.60;;;;;;10432939;28;20034;-88
2022/06/05 13:15:28;;;;;;;4.50;4.10;;;26.90;64.00;;;;;;10439538;28;20105;-88
2022/06/05 13:20:35;;;;;;;5.00;3.92;;;26.80;62.60;;;;;;10442232;28;20504;-85
2022/06/05 13:25:52;;;;;;;4.47;4.03;;;26.70;64.90;;;;;;10437927;28;20032;-84
2022/06/05 13:30:59;;;;;;;4.28;3.88;;;26.40;65.40;;;;;;10432519;28;20025;-83
2022/06/05 13:36:07;;;;;;;4.55;3.65;;;26.70;65.20;;;;;;10432462;28;20018;-86
2022/06/05 13:41:23;;;;;;;4.20;3.53;;;26.80;65.10;;;;;;10438964;28;20108;-85
2022/06/05 13:46:35;;;;;;;4.40;4.00;;;26.60;63.00;;;;;;10434972;28;20022;-84
2022/06/05 13:51:47;;;;;;;4.65;3.92;;;26.80;65.40;;;;;;10436642;28;20469;-84
2022/06/05 13:57:16;;;;;;;4.60;4.18;;;26.80;62.10;;;;;;10439211;28;20075;-84
2022/06/05 14:02:36;;;;;;;4.30;3.90;;;26.30;62.00;;;;;;10464760;28;20044;-84
2022/06/05 14:07:50;;;;;;;4.60;4.20;;;26.00;63.00;;;;;;10422842;28;20025;-83
2022/06/05 14:12:59;;;;;;;4.35;3.95;;;25.80;63.80;;;;;;10441573;28;20067;-84
2022/06/05 14:18:00;;;;;;;4.72;3.70;;;25.80;65.10;;;;;;10433767;28;20120;-84
2022/06/05 14:23:04;;;;;;;6.07;4.15;;;25.40;64.00;;;;;;10432595;28;20036;-83
2022/06/05 14:28:09;;;;;;;4.28;3.60;;;25.20;65.50;;;;;;10440507;28;20025;-86
2022/06/05 14:33:19;;;;;;;5.07;3.95;;;25.30;64.40;;;;;;10442043;28;20059;-87
2022/06/05 14:38:41;;;;;;;3.97;3.65;;;25.30;67.10;;;;;;10441542;28;20041;-84
2022/06/05 14:43:53;;;;;;;3.97;3.67;;;25.50;64.70;;;;;;10440839;28;20040;-85
2022/06/05 14:49:07;;;;;;;6.25;4.10;;;25.40;62.70;;;;;;10441022;28;20029;-83
2022/06/05 15:00:05;;;;;;;4.07;3.78;;;25.40;66.80;;;;;;10427748;28;20660;-85
2022/06/05 15:05:19;;;;;;;5.65;4.20;;;25.70;65.50;;;;;;10434481;28;20034;-85
2022/06/05 15:10:37;;;;;;;4.27;3.83;;;25.70;66.20;;;;;;10445208;28;20110;-84
2022/06/05 15:15:45;;;;;;;4.53;4.10;;;25.20;66.70;;;;;;10443618;28;20141;-86
2022/06/05 15:21:16;;;;;;;4.70;3.67;;;24.60;67.40;;;;;;10443960;28;20072;-84
2022/06/05 15:26:50;;;;;;;4.85;4.22;;;24.60;69.20;;;;;;10422484;28;20095;-84
2022/06/05 15:32:13;;;;;;;4.38;3.97;;;24.50;65.70;;;;;;10432096;28;20381;-87
2022/06/05 15:37:23;;;;;;;4.25;3.88;;;24.40;67.90;;;;;;10444303;28;20541;-87
2022/06/05 15:42:31;;;;;;;4.45;4.10;;;24.40;67.70;;;;;;10447911;28;20060;-83
2022/06/05 15:47:57;;;;;;;4.32;3.92;;;24.50;68.00;;;;;;10449523;28;20380;-86
2022/06/05 15:52:57;;;;;;;7.30;4.38;;;24.40;68.70;;;;;;10443382;28;20027;-84
2022/06/05 15:58:23;;;;;;;5.65;4.70;;;24.40;68.90;;;;;;10447022;28;20061;-86
2022/06/05 16:03:31;;;;;;;6.43;4.90;;;24.30;69.40;;;;;;10446904;28;20112;-83
2022/06/05 16:08:44;;;;;;;4.57;4.07;;;24.30;69.80;;;;;;10446273;28;20033;-84
2022/06/05 16:14:04;;;;;;;6.05;4.10;;;24.10;69.80;;;;;;10478493;28;20070;-85
2022/06/05 16:19:13;;;;;;;5.95;4.93;;;24.00;69.40;;;;;;10449154;28;20051;-85
2022/06/05 16:24:16;;;;;;;6.43;4.57;;;24.00;70.30;;;;;;10420358;28;20036;-86
2022/06/05 16:29:20;;;;;;;4.50;4.10;;;23.90;69.00;;;;;;10421292;28;20030;-86
2022/06/05 16:39:58;;;;;;;4.22;3.83;;;23.60;68.80;;;;;;10413886;28;20481;-88
2022/06/05 16:45:21;;;;;;;6.03;4.05;;;23.50;69.40;;;;;;10423380;28;20451;-85
2022/06/05 16:50:50;;;;;;;5.85;3.63;;;23.50;69.00;;;;;;10436388;28;20040;-86
2022/06/05 16:55:56;;;;;;;4.20;3.80;;;23.40;70.40;;;;;;10454767;28;20045;-86
2022/06/05 17:01:07;;;;;;;5.00;4.50;;;23.30;72.50;;;;;;10426527;28;20064;-85
2022/06/05 17:06:45;;;;;;;4.97;4.47;;;23.10;71.20;;;;;;10434557;28;20029;-86
2022/06/05 17:12:07;;;;;;;3.95;3.58;;;23.00;71.00;;;;;;10437724;28;20028;-86
2022/06/05 17:17:19;;;;;;;4.88;4.03;;;22.90;71.20;;;;;;10427884;28;20496;-86
2022/06/05 17:22:40;;;;;;;4.80;4.40;;;22.70;71.40;;;;;;10436170;28;20039;-90
2022/06/05 17:28:10;;;;;;;4.85;4.45;;;22.60;72.70;;;;;;10441651;28;20435;-86
2022/06/05 17:33:40;;;;;;;4.47;3.88;;;22.40;73.10;;;;;;10430834;28;20041;-86
2022/06/05 17:39:14;;;;;;;5.80;3.90;;;22.30;75.00;;;;;;10447499;28;20769;-84
2022/06/05 17:44:36;;;;;;;4.95;4.28;;;22.00;74.70;;;;;;10430484;28;20119;-84
2022/06/05 17:49:55;;;;;;;4.43;4.03;;;21.90;74.10;;;;;;10434301;28;20075;-87
2022/06/05 17:55:09;;;;;;;4.20;3.80;;;21.70;75.00;;;;;;10433075;28;20049;-86
2022/06/05 18:00:16;;;;;;;5.75;4.32;;;21.60;75.00;;;;;;10431950;28;20575;-85
2022/06/05 18:05:26;;;;;;;5.68;4.10;;;21.50;75.40;;;;;;10428528;28;20036;-86
2022/06/05 18:10:30;;;;;;;5.10;3.63;;;21.30;77.10;;;;;;10433160;28;20086;-86
2022/06/05 18:15:31;;;;;;;7.32;4.30;;;21.20;78.20;;;;;;10446532;28;20440;-82
2022/06/05 18:20:50;;;;;;;5.25;4.55;;;20.90;78.50;;;;;;10438706;28;20392;-83
2022/06/05 18:25:57;;;;;;;4.13;3.72;;;20.70;79.30;;;;;;10439195;28;20025;-82
2022/06/05 18:31:15;;;;;;;4.47;3.95;;;20.40;81.10;;;;;;10428450;28;20091;-86
2022/06/05 18:41:59;;;;;;;4.50;4.10;;;20.00;81.60;;;;;;10437915;28;20046;-83
2022/06/05 18:47:03;;;;;;;5.03;4.55;;;19.70;83.30;;;;;;10434610;28;20029;-85
2022/06/05 18:52:11;;;;;;;6.60;4.82;;;19.40;84.10;;;;;;10431690;28;20033;-83
2022/06/05 18:57:29;;;;;;;5.82;4.55;;;19.00;84.20;;;;;;10432220;28;20045;-84
2022/06/05 19:02:38;;;;;;;5.45;4.60;;;18.80;85.00;;;;;;10442220;28;20039;-84
2022/06/05 19:07:42;;;;;;;6.15;4.70;;;18.70;85.80;;;;;;10433434;28;20029;-85
2022/06/05 19:12:49;;;;;;;5.80;4.80;;;18.50;85.20;;;;;;10439625;28;20079;-91
2022/06/05 19:18:32;;;;;;;6.47;4.47;;;18.50;86.10;;;;;;10465529;28;20033;-83
2022/06/05 19:23:50;;;;;;;5.97;4.70;;;18.40;86.50;;;;;;10411056;28;20440;-84
2022/06/05 19:28:54;;;;;;;6.50;5.22;;;18.20;86.30;;;;;;10437252;28;20037;-84
2022/06/05 19:34:16;;;;;;;7.57;5.30;;;18.30;86.30;;;;;;10423704;28;20377;-83
2022/06/05 19:39:26;;;;;;;6.30;5.45;;;18.10;86.90;;;;;;10442966;28;20043;-84
2022/06/05 19:44:36;;;;;;;7.82;5.43;;;18.00;87.20;;;;;;10439790;28;20033;-84
2022/06/05 19:49:44;;;;;;;6.45;5.00;;;17.70;87.70;;;;;;10436517;28;20040;-86
2022/06/05 19:54:46;;;;;;;6.95;5.10;;;17.70;87.20;;;;;;10429816;28;20047;-84
2022/06/05 20:00:11;;;;;;;7.60;4.50;;;17.60;87.10;;;;;;10448081;28;20132;-86
2022/06/05 20:05:36;;;;;;;5.47;4.60;;;17.50;87.50;;;;;;10438887;28;20041;-85
2022/06/05 20:10:57;;;;;;;7.25;4.85;;;17.30;86.70;;;;;;10428989;28;20064;-87
2022/06/05 20:16:29;;;;;;;5.07;4.40;;;17.30;88.50;;;;;;10432867;28;20112;-88
2022/06/05 20:21:33;;;;;;;6.03;4.40;;;17.20;88.60;;;;;;10412064;28;20485;-84
2022/06/05 20:26:35;;;;;;;8.85;5.57;;;17.20;87.80;;;;;;10433118;28;20033;-82
2022/06/05 20:31:55;;;;;;;5.95;5.15;;;17.30;88.50;;;;;;10422095;28;20134;-89
2022/06/05 20:36:56;;;;;;;5.47;4.93;;;17.30;87.90;;;;;;10430298;28;20034;-83
2022/06/05 20:42:02;;;;;;;5.75;4.88;;;17.30;86.70;;;;;;10413981;28;20029;-84
2022/06/05 20:47:27;;;;;;;5.22;4.55;;;17.20;86.00;;;;;;10434773;28;20033;-85
2022/06/05 20:52:35;;;;;;;6.47;4.90;;;17.20;85.90;;;;;;10431181;28;20066;-87
2022/06/05 20:57:44;;;;;;;8.18;6.30;;;17.10;87.80;;;;;;10426061;28;20155;-85
2022/06/05 21:08:18;;;;;;;9.77;6.50;;;16.90;88.70;;;;;;10438861;28;20037;-86
2022/06/05 21:18:39;;;;;;;14.88;8.13;;;16.70;90.40;;;;;;10430552;28;20045;-86
2022/06/05 21:23:40;;;;;;;14.20;10.45;;;16.50;91.00;;;;;;10444915;28;20029;-85
2022/06/05 21:28:46;;;;;;;22.13;12.05;;;16.40;91.70;;;;;;10436417;28;20387;-86
2022/06/05 21:33:47;;;;;;;20.48;12.68;;;16.30;92.50;;;;;;10436466;28;20032;-85
2022/06/05 21:39:07;;;;;;;21.25;12.20;;;16.20;93.20;;;;;;10442380;28;20123;-87
2022/06/05 21:44:23;;;;;;;21.42;12.82;;;16.00;94.50;;;;;;10431943;28;20025;-88
2022/06/05 21:49:24;;;;;;;15.77;11.93;;;15.80;96.50;;;;;;10440103;28;20400;-86
2022/06/05 21:54:41;;;;;;;29.40;18.40;;;15.70;97.50;;;;;;10443126;28;20044;-85
2022/06/05 21:59:41;;;;;;;24.02;15.20;;;15.70;99.80;;;;;;10436760;28;20045;-89
2022/06/05 22:04:42;;;;;;;21.75;12.23;;;15.70;99.90;;;;;;10428001;28;20025;-85
2022/06/05 22:09:44;;;;;;;17.92;10.30;;;15.70;99.90;;;;;;10443632;28;20163;-85
2022/06/05 22:14:45;;;;;;;19.92;11.82;;;15.70;99.90;;;;;;10451151;28;20797;-85
2022/06/05 22:19:45;;;;;;;18.80;11.88;;;15.70;99.90;;;;;;10435504;28;20116;-86
2022/06/05 22:24:46;;;;;;;16.98;11.93;;;15.90;98.70;;;;;;10427948;28;20036;-86
2022/06/05 22:29:47;;;;;;;18.55;12.65;;;15.90;97.80;;;;;;10440401;28;20024;-86
2022/06/05 22:34:49;;;;;;;13.93;10.10;;;16.00;97.40;;;;;;10444501;28;20025;-86
2022/06/05 22:39:49;;;;;;;10.70;8.60;;;16.10;97.00;;;;;;10433817;28;20040;-85
2022/06/05 22:44:50;;;;;;;11.38;8.25;;;16.10;96.50;;;;;;10444935;28;20032;-86
2022/06/05 22:49:51;;;;;;;12.13;8.98;;;16.20;96.40;;;;;;10444383;28;20033;-85
2022/06/05 22:54:52;;;;;;;11.25;8.98;;;16.10;96.10;;;;;;10436818;28;20045;-91
2022/06/05 22:59:52;;;;;;;11.02;9.40;;;16.10;95.90;;;;;;10451890;28;20694;-86
2022/06/05 23:04:53;;;;;;;13.43;9.50;;;16.10;96.40;;;;;;10456454;28;20415;-86
2022/06/05 23:09:53;;;;;;;13.45;9.48;;;16.00;96.90;;;;;;10442246;28;20029;-86
2022/06/05 23:14:54;;;;;;;13.75;10.00;;;16.00;97.30;;;;;;10450385;28;20284;-87
2022/06/05 23:19:55;;;;;;;15.05;9.82;;;15.90;98.00;;;;;;10453929;28;20080;-88
2022/06/05 23:24:55;;;;;;;12.43;9.77;;;15.80;99.20;;;;;;10454716;28;20082;-87
2022/06/05 23:29:56;;;;;;;13.00;9.93;;;15.60;99.90;;;;;;10454814;28;20029;-87
2022/06/05 23:34:57;;;;;;;21.23;10.63;;;15.40;99.90;;;;;;10450418;28;20119;-86
2022/06/05 23:40:03;;;;;;;23.98;14.23;;;15.20;99.90;;;;;;10450435;28;20088;-87
2022/06/05 23:45:05;;;;;;;22.55;15.23;;;15.10;99.90;;;;;;10447086;28;20497;-88
2022/06/05 23:50:07;;;;;;;21.52;13.90;;;14.90;99.90;;;;;;10449694;28;20037;-86
2022/06/05 23:55:09;;;;;;;15.10;11.35;;;14.80;99.90;;;;;;10440089;28;20049;-91
